createdAt,value
2019-02-02T00:00:31.120Z,988.28
2019-02-02T00:01:31.111Z,988.28
2019-02-02T00:02:31.102Z,988.31
2019-02-02T00:03:31.095Z,988.20
2019-02-02T00:04:31.102Z,988.22
2019-02-02T00:05:31.137Z,988.19
2019-02-02T00:06:31.201Z,988.18
2019-02-02T00:07:31.064Z,988.18
2019-02-02T00:08:31.041Z,988.13
2019-02-02T00:09:31.039Z,988.22
2019-02-02T00:10:31.056Z,988.15
2019-02-02T00:11:31.019Z,988.13
2019-02-02T00:12:30.998Z,988.19
2019-02-02T00:13:31.022Z,988.18
2019-02-02T00:14:30.972Z,988.12
2019-02-02T00:15:30.961Z,988.09
2019-02-02T00:16:30.954Z,988.12
2019-02-02T00:17:30.967Z,988.11
2019-02-02T00:18:30.962Z,988.13
2019-02-02T00:19:30.926Z,988.11
2019-02-02T00:20:30.903Z,988.10
2019-02-02T00:21:30.924Z,988.01
2019-02-02T00:22:30.897Z,988.08
2019-02-02T00:23:30.903Z,988.05
2019-02-02T00:24:30.867Z,988.11
2019-02-02T00:25:30.855Z,988.09
2019-02-02T00:26:30.842Z,988.12
2019-02-02T00:27:40.846Z,988.16
2019-02-02T00:28:31.841Z,988.06
2019-02-02T00:29:30.843Z,988.02
2019-02-02T00:30:30.805Z,988.00
2019-02-02T00:31:30.794Z,988.02
2019-02-02T00:32:30.794Z,987.97
2019-02-02T00:33:30.783Z,987.97
2019-02-02T00:34:30.781Z,988.02
2019-02-02T00:35:30.752Z,988.00
2019-02-02T00:36:30.746Z,987.96
2019-02-02T00:37:30.819Z,987.95
2019-02-02T00:38:30.725Z,987.95
2019-02-02T00:39:30.696Z,988.05
2019-02-02T00:40:30.701Z,987.94
2019-02-02T00:41:30.701Z,987.95
2019-02-02T00:42:30.685Z,987.95
2019-02-02T00:43:30.680Z,987.92
2019-02-02T00:44:30.652Z,987.97
2019-02-02T00:45:30.632Z,987.98
2019-02-02T00:46:30.629Z,987.92
2019-02-02T00:47:30.607Z,987.90
2019-02-02T00:48:30.654Z,987.93
2019-02-02T00:49:30.598Z,987.97
2019-02-02T00:50:30.596Z,988.00
2019-02-02T00:51:30.579Z,987.99
2019-02-02T00:52:30.578Z,988.01
2019-02-02T00:53:30.549Z,988.03
2019-02-02T00:54:30.588Z,988.11
2019-02-02T00:55:30.537Z,988.13
2019-02-02T00:56:30.524Z,988.14
2019-02-02T00:57:30.508Z,988.14
2019-02-02T00:58:30.521Z,988.11
2019-02-02T00:59:30.514Z,988.11
2019-02-02T01:00:30.479Z,988.20
2019-02-02T01:01:30.468Z,988.19
2019-02-02T01:02:30.464Z,988.22
2019-02-02T01:03:30.451Z,988.20
2019-02-02T01:04:30.456Z,988.23
2019-02-02T01:05:30.418Z,988.25
2019-02-02T01:06:30.412Z,988.26
2019-02-02T01:07:30.437Z,988.24
2019-02-02T01:08:30.401Z,988.26
2019-02-02T01:09:30.386Z,988.24
2019-02-02T01:10:30.392Z,988.28
2019-02-02T01:11:30.352Z,988.28
2019-02-02T01:12:30.353Z,988.30
2019-02-02T01:13:30.351Z,988.24
2019-02-02T01:14:30.338Z,988.19
2019-02-02T01:15:30.340Z,988.19
2019-02-02T01:16:30.330Z,988.15
2019-02-02T01:17:30.305Z,988.15
2019-02-02T01:18:30.281Z,988.07
2019-02-02T01:19:30.270Z,988.11
2019-02-02T01:20:30.384Z,988.16
2019-02-02T01:21:30.332Z,988.21
2019-02-02T01:22:30.341Z,988.24
2019-02-02T01:23:30.232Z,988.25
2019-02-02T01:24:30.211Z,988.24
2019-02-02T01:25:30.213Z,988.28
2019-02-02T01:26:30.223Z,988.25
2019-02-02T01:27:30.205Z,988.25
2019-02-02T01:28:30.193Z,988.28
2019-02-02T01:29:30.156Z,988.28
2019-02-02T01:30:30.147Z,988.28
2019-02-02T01:31:30.148Z,988.21
2019-02-02T01:32:30.179Z,988.22
2019-02-02T01:33:30.122Z,988.22
2019-02-02T01:34:30.114Z,988.17
2019-02-02T01:35:30.099Z,988.16
2019-02-02T01:36:30.087Z,988.17
2019-02-02T01:37:30.083Z,988.15
2019-02-02T01:38:30.095Z,988.19
2019-02-02T01:39:30.066Z,988.21
2019-02-02T01:40:30.050Z,988.20
2019-02-02T01:41:30.041Z,988.17
2019-02-02T01:42:30.028Z,988.18
2019-02-02T01:43:30.020Z,988.16
2019-02-02T01:44:30.046Z,988.14
2019-02-02T01:45:30.001Z,988.15
2019-02-02T01:46:29.993Z,988.16
2019-02-02T01:47:30.092Z,988.17
2019-02-02T01:48:29.958Z,988.20
2019-02-02T01:49:29.967Z,988.14
2019-02-02T01:50:29.969Z,988.17
2019-02-02T01:51:29.920Z,988.19
2019-02-02T01:52:29.941Z,988.18
2019-02-02T01:53:29.916Z,988.15
2019-02-02T01:54:29.965Z,988.11
2019-02-02T01:55:29.911Z,988.13
2019-02-02T01:56:29.875Z,988.10
2019-02-02T01:57:29.871Z,988.12
2019-02-02T01:58:29.853Z,988.07
2019-02-02T01:59:29.856Z,988.05
2019-02-02T02:00:29.855Z,987.98
2019-02-02T02:01:29.812Z,987.92
2019-02-02T02:02:29.812Z,988.00
2019-02-02T02:03:29.803Z,987.95
2019-02-02T02:04:29.804Z,987.93
2019-02-02T02:05:29.837Z,987.90
2019-02-02T02:06:29.789Z,987.88
2019-02-02T02:07:29.758Z,987.92
2019-02-02T02:08:29.747Z,987.92
2019-02-02T02:09:29.737Z,987.97
2019-02-02T02:10:29.725Z,987.96
2019-02-02T02:11:29.729Z,988.02
2019-02-02T02:12:29.708Z,988.01
2019-02-02T02:13:29.694Z,988.03
2019-02-02T02:14:29.807Z,988.02
2019-02-02T02:15:29.670Z,988.04
2019-02-02T02:16:29.685Z,988.03
2019-02-02T02:17:29.656Z,988.04
2019-02-02T02:18:29.659Z,988.01
2019-02-02T02:19:29.671Z,988.05
2019-02-02T02:20:29.627Z,988.11
2019-02-02T02:21:29.603Z,988.06
2019-02-02T02:22:40.641Z,988.05
2019-02-02T02:23:30.585Z,988.07
2019-02-02T02:24:29.596Z,988.05
2019-02-02T02:25:29.573Z,988.05
2019-02-02T02:26:29.565Z,987.99
2019-02-02T02:27:29.549Z,987.95
2019-02-02T02:28:29.560Z,988.01
2019-02-02T02:29:29.512Z,987.93
2019-02-02T02:30:29.521Z,987.95
2019-02-02T02:31:29.514Z,987.91
2019-02-02T02:32:29.493Z,987.91
2019-02-02T02:33:29.487Z,987.88
2019-02-02T02:34:29.489Z,987.86
2019-02-02T02:35:29.448Z,987.84
2019-02-02T02:36:29.474Z,987.80
2019-02-02T02:37:29.446Z,987.78
2019-02-02T02:38:29.463Z,987.77
2019-02-02T02:39:29.416Z,987.76
2019-02-02T02:40:29.427Z,987.75
2019-02-02T02:41:29.393Z,987.77
2019-02-02T02:42:29.378Z,987.71
2019-02-02T02:43:29.360Z,987.67
2019-02-02T02:44:29.369Z,987.73
2019-02-02T02:45:29.360Z,987.73
2019-02-02T02:46:29.359Z,987.75
2019-02-02T02:47:29.334Z,987.73
2019-02-02T02:48:29.316Z,987.71
2019-02-02T02:49:29.334Z,987.75
2019-02-02T02:50:29.300Z,987.74
2019-02-02T02:51:29.315Z,987.68
2019-02-02T02:52:29.270Z,987.68
2019-02-02T02:53:29.257Z,987.71
2019-02-02T02:54:29.256Z,987.79
2019-02-02T02:55:29.237Z,987.80
2019-02-02T02:56:29.242Z,987.86
2019-02-02T02:57:29.258Z,987.88
2019-02-02T02:58:40.502Z,987.92
2019-02-02T02:59:30.214Z,987.92
2019-02-02T03:00:29.201Z,987.86
2019-02-02T03:01:29.175Z,987.90
2019-02-02T03:02:29.169Z,987.82
2019-02-02T03:03:29.210Z,987.78
2019-02-02T03:04:29.151Z,987.73
2019-02-02T03:05:29.126Z,987.67
2019-02-02T03:06:29.120Z,987.62
2019-02-02T03:07:29.116Z,987.61
2019-02-02T03:08:29.124Z,987.61
2019-02-02T03:09:29.095Z,987.62
2019-02-02T03:10:29.092Z,987.61
2019-02-02T03:11:29.073Z,987.60
2019-02-02T03:12:29.067Z,987.57
2019-02-02T03:13:29.080Z,987.57
2019-02-02T03:14:29.033Z,987.50
2019-02-02T03:15:29.018Z,987.47
2019-02-02T03:16:29.026Z,987.50
2019-02-02T03:17:29.008Z,987.54
2019-02-02T03:18:29.008Z,987.51
2019-02-02T03:19:29.000Z,987.56
2019-02-02T03:20:28.977Z,987.58
2019-02-02T03:21:28.959Z,987.55
2019-02-02T03:22:28.967Z,987.60
2019-02-02T03:23:28.952Z,987.59
2019-02-02T03:24:28.934Z,987.54
2019-02-02T03:25:28.951Z,987.56
2019-02-02T03:26:28.913Z,987.51
2019-02-02T03:27:28.897Z,987.40
2019-02-02T03:28:28.886Z,987.40
2019-02-02T03:29:28.881Z,987.39
2019-02-02T03:30:28.897Z,987.39
2019-02-02T03:31:28.858Z,987.41
2019-02-02T03:32:28.837Z,987.48
2019-02-02T03:33:28.838Z,987.48
2019-02-02T03:34:28.824Z,987.50
2019-02-02T03:35:28.830Z,987.45
2019-02-02T03:36:28.833Z,987.41
2019-02-02T03:37:28.795Z,987.41
2019-02-02T03:38:28.776Z,987.39
2019-02-02T03:39:28.769Z,987.40
2019-02-02T03:40:28.759Z,987.42
2019-02-02T03:41:28.807Z,987.45
2019-02-02T03:42:28.736Z,987.47
2019-02-02T03:43:28.736Z,987.51
2019-02-02T03:44:28.709Z,987.51
2019-02-02T03:45:28.697Z,987.56
2019-02-02T03:46:28.692Z,987.60
2019-02-02T03:47:28.702Z,987.61
2019-02-02T03:48:28.771Z,987.63
2019-02-02T03:49:28.672Z,987.59
2019-02-02T03:50:28.643Z,987.66
2019-02-02T03:51:28.641Z,987.59
2019-02-02T03:52:28.668Z,987.57
2019-02-02T03:53:28.619Z,987.59
2019-02-02T03:54:28.616Z,987.61
2019-02-02T03:55:28.599Z,987.58
2019-02-02T03:56:28.584Z,987.63
2019-02-02T03:57:28.595Z,987.64
2019-02-02T03:58:28.707Z,987.69
2019-02-02T03:59:28.545Z,987.64
2019-02-02T04:00:28.554Z,987.74
2019-02-02T04:01:30.122Z,987.71
2019-02-02T04:02:28.532Z,987.72
2019-02-02T04:03:28.519Z,987.75
2019-02-02T04:04:28.609Z,987.75
2019-02-02T04:05:28.482Z,987.73
2019-02-02T04:06:28.488Z,987.75
2019-02-02T04:07:28.473Z,987.80
2019-02-02T04:08:28.477Z,987.82
2019-02-02T04:09:28.442Z,987.86
2019-02-02T04:10:28.450Z,987.82
2019-02-02T04:11:28.454Z,987.86
2019-02-02T04:12:28.415Z,987.74
2019-02-02T04:13:28.408Z,987.76
2019-02-02T04:14:28.410Z,987.74
2019-02-02T04:15:28.409Z,987.70
2019-02-02T04:16:28.386Z,987.74
2019-02-02T04:17:28.358Z,987.73
2019-02-02T04:18:28.355Z,987.64
2019-02-02T04:19:28.341Z,987.59
2019-02-02T04:20:28.352Z,987.59
2019-02-02T04:21:28.326Z,987.64
2019-02-02T04:22:28.314Z,987.66
2019-02-02T04:23:28.297Z,987.79
2019-02-02T04:24:28.287Z,987.82
2019-02-02T04:25:28.354Z,987.84
2019-02-02T04:26:28.287Z,987.83
2019-02-02T04:27:28.256Z,987.79
2019-02-02T04:28:28.270Z,987.76
2019-02-02T04:29:28.226Z,987.70
2019-02-02T04:30:28.212Z,987.61
2019-02-02T04:31:28.228Z,987.65
2019-02-02T04:32:28.208Z,987.63
2019-02-02T04:33:28.210Z,987.62
2019-02-02T04:34:28.181Z,987.56
2019-02-02T04:35:28.167Z,987.56
2019-02-02T04:36:28.171Z,987.52
2019-02-02T04:37:28.147Z,987.49
2019-02-02T04:38:28.145Z,987.44
2019-02-02T04:39:28.130Z,987.47
2019-02-02T04:40:28.106Z,987.45
2019-02-02T04:41:28.116Z,987.47
2019-02-02T04:42:28.087Z,987.48
2019-02-02T04:43:28.072Z,987.61
2019-02-02T04:44:28.078Z,987.67
2019-02-02T04:45:28.061Z,987.70
2019-02-02T04:46:28.053Z,987.72
2019-02-02T04:47:28.066Z,987.76
2019-02-02T04:48:28.027Z,987.82
2019-02-02T04:49:28.011Z,987.83
2019-02-02T04:50:28.010Z,987.82
2019-02-02T04:51:27.994Z,987.82
2019-02-02T04:52:28.015Z,987.84
2019-02-02T04:53:27.975Z,987.77
2019-02-02T04:54:27.954Z,987.79
2019-02-02T04:55:27.951Z,987.74
2019-02-02T04:56:27.946Z,987.74
2019-02-02T04:57:27.943Z,987.74
2019-02-02T04:58:27.938Z,987.70
2019-02-02T04:59:29.192Z,987.66
2019-02-02T05:00:27.969Z,987.56
2019-02-02T05:01:27.897Z,987.45
2019-02-02T05:02:30.382Z,987.39
2019-02-02T05:03:27.874Z,987.35
2019-02-02T05:04:27.859Z,987.25
2019-02-02T05:05:27.847Z,987.21
2019-02-02T05:06:27.830Z,987.15
2019-02-02T05:07:27.831Z,987.06
2019-02-02T05:08:27.834Z,987.06
2019-02-02T05:09:27.786Z,987.09
2019-02-02T05:10:27.801Z,987.09
2019-02-02T05:11:27.782Z,987.18
2019-02-02T05:12:27.762Z,987.12
2019-02-02T05:13:27.759Z,987.21
2019-02-02T05:14:27.744Z,987.20
2019-02-02T05:15:27.749Z,987.23
2019-02-02T05:16:27.729Z,987.27
2019-02-02T05:17:27.725Z,987.23
2019-02-02T05:18:27.708Z,987.18
2019-02-02T05:19:27.696Z,987.18
2019-02-02T05:20:28.678Z,987.18
2019-02-02T05:21:27.680Z,987.21
2019-02-02T05:22:27.667Z,987.22
2019-02-02T05:23:27.653Z,987.29
2019-02-02T05:24:27.643Z,987.37
2019-02-02T05:25:27.635Z,987.42
2019-02-02T05:26:27.638Z,987.41
2019-02-02T05:27:27.598Z,987.43
2019-02-02T05:28:27.595Z,987.49
2019-02-02T05:29:27.689Z,987.52
2019-02-02T05:30:27.603Z,987.49
2019-02-02T05:31:27.596Z,987.46
2019-02-02T05:32:27.581Z,987.51
2019-02-02T05:33:27.586Z,987.51
2019-02-02T05:34:27.557Z,987.56
2019-02-02T05:35:27.577Z,987.55
2019-02-02T05:36:27.528Z,987.48
2019-02-02T05:37:27.544Z,987.44
2019-02-02T05:38:27.510Z,987.36
2019-02-02T05:39:27.499Z,987.40
2019-02-02T05:40:27.487Z,987.34
2019-02-02T05:41:27.466Z,987.28
2019-02-02T05:42:27.521Z,987.30
2019-02-02T05:43:27.456Z,987.23
2019-02-02T05:44:27.434Z,987.18
2019-02-02T05:45:27.430Z,987.22
2019-02-02T05:46:27.410Z,987.20
2019-02-02T05:47:27.441Z,987.31
2019-02-02T05:48:27.430Z,987.40
2019-02-02T05:49:27.449Z,987.43
2019-02-02T05:50:27.373Z,987.48
2019-02-02T05:51:27.361Z,987.44
2019-02-02T05:52:27.360Z,987.40
2019-02-02T05:53:27.369Z,987.46
2019-02-02T05:54:27.307Z,987.43
2019-02-02T05:55:27.333Z,987.46
2019-02-02T05:56:27.357Z,987.55
2019-02-02T05:57:27.282Z,987.56
2019-02-02T05:58:27.326Z,987.66
2019-02-02T05:59:27.273Z,987.58
2019-02-02T06:00:27.330Z,987.65
2019-02-02T06:01:29.981Z,987.65
2019-02-02T06:02:27.229Z,987.73
2019-02-02T06:03:27.226Z,987.70
2019-02-02T06:04:27.196Z,987.68
2019-02-02T06:05:27.238Z,987.66
2019-02-02T06:06:27.223Z,987.73
2019-02-02T06:07:27.201Z,987.73
2019-02-02T06:08:27.179Z,987.75
2019-02-02T06:09:27.163Z,987.80
2019-02-02T06:10:27.224Z,987.83
2019-02-02T06:11:27.148Z,987.86
2019-02-02T06:12:27.122Z,987.83
2019-02-02T06:13:27.138Z,987.86
2019-02-02T06:14:27.107Z,987.90
2019-02-02T06:15:28.764Z,987.85
2019-02-02T06:16:27.115Z,987.87
2019-02-02T06:17:27.067Z,987.82
2019-02-02T06:18:27.069Z,987.78
2019-02-02T06:19:27.089Z,987.79
2019-02-02T06:20:27.038Z,987.75
2019-02-02T06:21:27.115Z,987.77
2019-02-02T06:22:27.056Z,987.84
2019-02-02T06:23:27.000Z,987.90
2019-02-02T06:24:27.019Z,987.85
2019-02-02T06:25:27.029Z,987.86
2019-02-02T06:26:27.027Z,987.91
2019-02-02T06:27:27.074Z,987.88
2019-02-02T06:28:26.955Z,987.93
2019-02-02T06:29:26.959Z,987.95
2019-02-02T06:30:26.943Z,987.95
2019-02-02T06:31:27.010Z,987.89
2019-02-02T06:32:26.963Z,987.92
2019-02-02T06:33:26.916Z,987.92
2019-02-02T06:34:26.895Z,987.93
2019-02-02T06:35:26.888Z,987.97
2019-02-02T06:36:26.876Z,987.99
2019-02-02T06:37:26.881Z,987.99
2019-02-02T06:38:26.840Z,988.01
2019-02-02T06:39:26.835Z,988.06
2019-02-02T06:40:26.884Z,987.98
2019-02-02T06:41:26.812Z,988.02
2019-02-02T06:42:26.826Z,987.99
2019-02-02T06:43:26.855Z,988.05
2019-02-02T06:44:26.878Z,988.01
2019-02-02T06:45:26.836Z,988.03
2019-02-02T06:46:26.764Z,988.01
2019-02-02T06:47:26.752Z,988.05
2019-02-02T06:48:26.731Z,988.03
2019-02-02T06:49:26.713Z,988.04
2019-02-02T06:50:26.787Z,988.04
2019-02-02T06:51:26.707Z,988.02
2019-02-02T06:52:26.707Z,987.96
2019-02-02T06:53:26.698Z,987.97
2019-02-02T06:54:26.697Z,987.92
2019-02-02T06:55:26.669Z,987.97
2019-02-02T06:56:26.670Z,987.94
2019-02-02T06:57:26.679Z,987.93
2019-02-02T06:58:26.624Z,987.89
2019-02-02T06:59:26.684Z,987.85
2019-02-02T07:00:26.725Z,987.78
2019-02-02T07:01:26.606Z,987.70
2019-02-02T07:02:26.578Z,987.70
2019-02-02T07:03:26.613Z,987.61
2019-02-02T07:04:26.584Z,987.63
2019-02-02T07:05:26.624Z,987.61
2019-02-02T07:06:26.547Z,987.60
2019-02-02T07:07:26.544Z,987.64
2019-02-02T07:08:26.521Z,987.65
2019-02-02T07:09:26.503Z,987.64
2019-02-02T07:10:26.486Z,987.73
2019-02-02T07:11:26.499Z,987.70
2019-02-02T07:12:26.500Z,987.75
2019-02-02T07:13:26.484Z,987.75
2019-02-02T07:14:26.459Z,987.78
2019-02-02T07:15:26.456Z,987.75
2019-02-02T07:16:26.456Z,987.78
2019-02-02T07:17:26.416Z,987.74
2019-02-02T07:18:26.412Z,987.79
2019-02-02T07:19:29.086Z,987.79
2019-02-02T07:20:26.401Z,987.82
2019-02-02T07:21:26.389Z,987.95
2019-02-02T07:22:26.379Z,987.89
2019-02-02T07:23:26.362Z,987.96
2019-02-02T07:24:26.366Z,988.02
2019-02-02T07:25:26.335Z,988.05
2019-02-02T07:26:26.318Z,988.10
2019-02-02T07:27:26.314Z,988.10
2019-02-02T07:28:26.301Z,988.19
2019-02-02T07:29:26.340Z,988.18
2019-02-02T07:30:29.130Z,988.22
2019-02-02T07:31:26.266Z,988.24
2019-02-02T07:32:26.278Z,988.24
2019-02-02T07:33:26.285Z,988.29
2019-02-02T07:34:26.238Z,988.28
2019-02-02T07:35:26.243Z,988.31
2019-02-02T07:36:26.221Z,988.34
2019-02-02T07:37:26.212Z,988.37
2019-02-02T07:38:26.239Z,988.33
2019-02-02T07:39:26.226Z,988.31
2019-02-02T07:40:26.204Z,988.31
2019-02-02T07:41:26.184Z,988.26
2019-02-02T07:42:26.140Z,988.29
2019-02-02T07:43:26.133Z,988.29
2019-02-02T07:44:26.137Z,988.34
2019-02-02T07:45:26.162Z,988.34
2019-02-02T07:46:26.116Z,988.34
2019-02-02T07:47:26.098Z,988.34
2019-02-02T07:48:26.083Z,988.37
2019-02-02T07:49:26.099Z,988.36
2019-02-02T07:50:26.071Z,988.37
2019-02-02T07:51:26.080Z,988.41
2019-02-02T07:52:26.042Z,988.43
2019-02-02T07:53:26.018Z,988.48
2019-02-02T07:54:26.014Z,988.51
2019-02-02T07:55:26.034Z,988.59
2019-02-02T07:56:26.297Z,988.59
2019-02-02T07:57:26.017Z,988.53
2019-02-02T07:58:25.991Z,988.47
2019-02-02T07:59:25.997Z,988.35
2019-02-02T08:00:26.000Z,988.37
2019-02-02T08:01:25.937Z,988.31
2019-02-02T08:02:25.940Z,988.32
2019-02-02T08:03:25.947Z,988.30
2019-02-02T08:04:25.926Z,988.35
2019-02-02T08:05:25.952Z,988.32
2019-02-02T08:06:25.911Z,988.35
2019-02-02T08:07:25.873Z,988.31
2019-02-02T08:08:25.883Z,988.32
2019-02-02T08:09:25.882Z,988.26
2019-02-02T08:10:25.868Z,988.30
2019-02-02T08:11:25.874Z,988.31
2019-02-02T08:12:25.842Z,988.32
2019-02-02T08:13:25.813Z,988.35
2019-02-02T08:14:25.821Z,988.38
2019-02-02T08:15:25.796Z,988.39
2019-02-02T08:16:25.813Z,988.34
2019-02-02T08:17:25.771Z,988.40
2019-02-02T08:18:25.771Z,988.36
2019-02-02T08:19:25.927Z,988.38
2019-02-02T08:20:25.755Z,988.47
2019-02-02T08:21:25.738Z,988.54
2019-02-02T08:22:25.750Z,988.64
2019-02-02T08:23:25.717Z,988.65
2019-02-02T08:24:25.695Z,988.69
2019-02-02T08:25:25.696Z,988.70
2019-02-02T08:26:25.697Z,988.73
2019-02-02T08:27:25.684Z,988.79
2019-02-02T08:28:25.657Z,988.78
2019-02-02T08:29:25.648Z,988.79
2019-02-02T08:30:25.639Z,988.80
2019-02-02T08:31:25.632Z,988.71
2019-02-02T08:32:25.663Z,988.71
2019-02-02T08:33:25.615Z,988.67
2019-02-02T08:34:25.581Z,988.66
2019-02-02T08:35:25.592Z,988.66
2019-02-02T08:36:25.575Z,988.56
2019-02-02T08:37:25.588Z,988.60
2019-02-02T08:38:25.585Z,988.58
2019-02-02T08:39:29.170Z,988.71
2019-02-02T08:40:25.532Z,988.67
2019-02-02T08:41:25.522Z,988.66
2019-02-02T08:42:25.512Z,988.68
2019-02-02T08:43:25.506Z,988.73
2019-02-02T08:44:25.509Z,988.65
2019-02-02T08:45:25.460Z,988.69
2019-02-02T08:46:25.460Z,988.71
2019-02-02T08:47:25.441Z,988.66
2019-02-02T08:48:25.478Z,988.63
2019-02-02T08:49:25.436Z,988.63
2019-02-02T08:50:25.424Z,988.63
2019-02-02T08:51:25.408Z,988.61
2019-02-02T08:52:25.392Z,988.61
2019-02-02T08:53:25.464Z,988.59
2019-02-02T08:54:25.410Z,988.58
2019-02-02T08:55:25.411Z,988.63
2019-02-02T08:56:25.356Z,988.66
2019-02-02T08:57:25.349Z,988.74
2019-02-02T08:58:25.448Z,988.79
2019-02-02T08:59:25.318Z,988.79
2019-02-02T09:00:25.329Z,988.85
2019-02-02T09:01:25.299Z,988.83
2019-02-02T09:02:25.387Z,988.79
2019-02-02T09:03:25.375Z,988.81
2019-02-02T09:04:25.385Z,988.76
2019-02-02T09:05:25.278Z,988.76
2019-02-02T09:06:25.249Z,988.77
2019-02-02T09:07:25.228Z,988.84
2019-02-02T09:08:25.227Z,988.89
2019-02-02T09:09:25.245Z,988.94
2019-02-02T09:10:25.195Z,988.94
2019-02-02T09:11:25.191Z,989.04
2019-02-02T09:12:25.187Z,989.08
2019-02-02T09:13:25.167Z,989.12
2019-02-02T09:14:25.166Z,989.10
2019-02-02T09:15:25.176Z,989.04
2019-02-02T09:16:25.150Z,989.02
2019-02-02T09:17:25.120Z,989.02
2019-02-02T09:18:25.103Z,989.05
2019-02-02T09:19:25.099Z,989.07
2019-02-02T09:20:25.121Z,989.10
2019-02-02T09:21:25.093Z,989.12
2019-02-02T09:22:25.072Z,989.13
2019-02-02T09:23:25.067Z,989.11
2019-02-02T09:24:25.040Z,989.07
2019-02-02T09:25:25.044Z,989.08
2019-02-02T09:26:25.057Z,989.11
2019-02-02T09:27:25.048Z,989.13
2019-02-02T09:28:25.022Z,989.13
2019-02-02T09:29:24.988Z,989.18
2019-02-02T09:30:24.975Z,989.19
2019-02-02T09:31:24.975Z,989.18
2019-02-02T09:32:25.009Z,989.11
2019-02-02T09:33:25.059Z,989.14
2019-02-02T09:34:24.988Z,989.08
2019-02-02T09:35:24.935Z,989.05
2019-02-02T09:36:24.928Z,989.04
2019-02-02T09:37:24.908Z,989.12
2019-02-02T09:38:24.890Z,989.18
2019-02-02T09:39:24.880Z,989.14
2019-02-02T09:40:25.693Z,989.12
2019-02-02T09:41:24.893Z,989.15
2019-02-02T09:42:24.884Z,989.15
2019-02-02T09:43:24.850Z,989.09
2019-02-02T09:44:24.846Z,989.10
2019-02-02T09:45:24.826Z,989.13
2019-02-02T09:46:24.843Z,989.12
2019-02-02T09:47:24.801Z,989.12
2019-02-02T09:48:24.810Z,989.13
2019-02-02T09:49:24.782Z,989.11
2019-02-02T09:50:24.759Z,989.12
2019-02-02T09:51:24.794Z,989.13
2019-02-02T09:52:24.764Z,989.15
2019-02-02T09:53:24.744Z,989.20
2019-02-02T09:54:26.681Z,989.13
2019-02-02T09:55:24.710Z,989.20
2019-02-02T09:56:24.701Z,989.15
2019-02-02T09:57:27.913Z,989.20
2019-02-02T09:58:24.704Z,989.15
2019-02-02T09:59:24.704Z,989.19
2019-02-02T10:00:24.663Z,989.17
2019-02-02T10:01:27.761Z,989.17
2019-02-02T10:02:27.036Z,989.17
2019-02-02T10:03:24.611Z,989.21
2019-02-02T10:04:24.620Z,989.21
2019-02-02T10:05:24.622Z,989.23
2019-02-02T10:06:24.600Z,989.23
2019-02-02T10:07:24.574Z,989.25
2019-02-02T10:08:24.577Z,989.22
2019-02-02T10:09:24.551Z,989.22
2019-02-02T10:10:24.539Z,989.23
2019-02-02T10:11:25.341Z,989.23
2019-02-02T10:12:24.556Z,989.24
2019-02-02T10:13:24.543Z,989.23
2019-02-02T10:14:24.502Z,989.18
2019-02-02T10:15:24.503Z,989.16
2019-02-02T10:16:24.504Z,989.08
2019-02-02T10:17:24.507Z,989.10
2019-02-02T10:18:25.292Z,989.07
2019-02-02T10:19:24.458Z,989.14
2019-02-02T10:20:24.500Z,989.21
2019-02-02T10:21:24.441Z,989.24
2019-02-02T10:22:24.449Z,989.29
2019-02-02T10:23:24.407Z,989.30
2019-02-02T10:24:24.401Z,989.26
2019-02-02T10:25:24.417Z,989.30
2019-02-02T10:26:24.385Z,989.26
2019-02-02T10:27:24.382Z,989.29
2019-02-02T10:28:24.367Z,989.28
2019-02-02T10:29:24.338Z,989.32
2019-02-02T10:30:24.365Z,989.31
2019-02-02T10:31:24.325Z,989.31
2019-02-02T10:32:24.301Z,989.26
2019-02-02T10:33:24.290Z,989.21
2019-02-02T10:34:25.087Z,989.16
2019-02-02T10:35:24.269Z,989.08
2019-02-02T10:36:24.273Z,989.10
2019-02-02T10:37:24.268Z,989.03
2019-02-02T10:38:24.244Z,989.09
2019-02-02T10:39:24.298Z,989.04
2019-02-02T10:40:24.231Z,989.09
2019-02-02T10:41:24.228Z,989.11
2019-02-02T10:42:24.192Z,989.14
2019-02-02T10:43:24.187Z,989.16
2019-02-02T10:44:24.176Z,989.14
2019-02-02T10:45:24.172Z,989.13
2019-02-02T10:46:24.181Z,989.17
2019-02-02T10:47:24.148Z,989.16
2019-02-02T10:48:24.139Z,989.16
2019-02-02T10:49:24.169Z,989.17
2019-02-02T10:50:24.119Z,989.15
2019-02-02T10:51:25.516Z,989.14
2019-02-02T10:52:24.112Z,989.23
2019-02-02T10:53:24.066Z,989.24
2019-02-02T10:54:24.059Z,989.22
2019-02-02T10:55:24.055Z,989.22
2019-02-02T10:56:24.051Z,989.22
2019-02-02T10:57:24.052Z,989.24
2019-02-02T10:58:24.062Z,989.23
2019-02-02T10:59:24.034Z,989.21
2019-02-02T11:00:23.999Z,989.23
2019-02-02T11:01:23.989Z,989.23
2019-02-02T11:02:23.991Z,989.26
2019-02-02T11:03:23.972Z,989.28
2019-02-02T11:04:24.047Z,989.24
2019-02-02T11:05:23.958Z,989.25
2019-02-02T11:06:23.942Z,989.24
2019-02-02T11:07:24.034Z,989.22
2019-02-02T11:08:23.934Z,989.25
2019-02-02T11:09:24.081Z,989.24
2019-02-02T11:10:24.004Z,989.24
2019-02-02T11:11:23.895Z,989.25
2019-02-02T11:12:23.871Z,989.29
2019-02-02T11:13:23.944Z,989.29
2019-02-02T11:14:23.864Z,989.28
2019-02-02T11:15:23.850Z,989.28
2019-02-02T11:16:23.829Z,989.22
2019-02-02T11:17:23.899Z,989.26
2019-02-02T11:18:23.928Z,989.26
2019-02-02T11:19:23.823Z,989.23
2019-02-02T11:20:24.048Z,989.27
2019-02-02T11:21:23.992Z,989.29
2019-02-02T11:22:23.787Z,989.21
2019-02-02T11:23:23.771Z,989.21
2019-02-02T11:24:23.776Z,989.17
2019-02-02T11:25:23.762Z,989.17
2019-02-02T11:26:23.730Z,989.23
2019-02-02T11:27:23.777Z,989.18
2019-02-02T11:28:23.839Z,989.17
2019-02-02T11:29:23.747Z,989.18
2019-02-02T11:30:23.674Z,989.19
2019-02-02T11:31:23.681Z,989.15
2019-02-02T11:32:23.655Z,989.13
2019-02-02T11:33:23.641Z,989.18
2019-02-02T11:34:23.630Z,989.14
2019-02-02T11:35:23.624Z,989.17
2019-02-02T11:36:23.631Z,989.12
2019-02-02T11:37:23.585Z,989.08
2019-02-02T11:38:23.607Z,989.05
2019-02-02T11:39:23.567Z,989.08
2019-02-02T11:40:23.567Z,989.10
2019-02-02T11:41:23.553Z,989.09
2019-02-02T11:42:23.577Z,989.07
2019-02-02T11:43:23.528Z,989.09
2019-02-02T11:44:23.528Z,989.07
2019-02-02T11:45:23.506Z,989.07
2019-02-02T11:46:23.509Z,989.05
2019-02-02T11:47:23.474Z,989.04
2019-02-02T11:48:23.507Z,989.07
2019-02-02T11:49:23.996Z,989.07
2019-02-02T11:50:23.453Z,989.12
2019-02-02T11:51:23.440Z,989.12
2019-02-02T11:52:23.508Z,989.14
2019-02-02T11:53:23.427Z,989.17
2019-02-02T11:54:23.464Z,989.18
2019-02-02T11:55:23.414Z,989.22
2019-02-02T11:56:23.386Z,989.18
2019-02-02T11:57:23.375Z,989.13
2019-02-02T11:58:23.366Z,989.15
2019-02-02T11:59:23.345Z,989.14
2019-02-02T12:00:23.374Z,989.13
2019-02-02T12:01:23.346Z,989.18
2019-02-02T12:02:23.326Z,989.21
2019-02-02T12:03:23.357Z,989.23
2019-02-02T12:04:23.312Z,989.29
2019-02-02T12:05:23.289Z,989.39
2019-02-02T12:06:23.290Z,989.47
2019-02-02T12:07:23.322Z,989.55
2019-02-02T12:08:23.252Z,989.60
2019-02-02T12:09:23.236Z,989.59
2019-02-02T12:10:23.223Z,989.59
2019-02-02T12:11:23.216Z,989.56
2019-02-02T12:12:23.217Z,989.51
2019-02-02T12:13:23.314Z,989.49
2019-02-02T12:14:23.209Z,989.47
2019-02-02T12:15:23.179Z,989.46
2019-02-02T12:16:23.169Z,989.56
2019-02-02T12:17:23.160Z,989.62
2019-02-02T12:18:23.195Z,989.63
2019-02-02T12:19:23.127Z,989.59
2019-02-02T12:20:23.134Z,989.57
2019-02-02T12:21:23.118Z,989.59
2019-02-02T12:22:23.103Z,989.57
2019-02-02T12:23:23.087Z,989.52
2019-02-02T12:24:23.115Z,989.54
2019-02-02T12:25:23.098Z,989.54
2019-02-02T12:26:23.073Z,989.53
2019-02-02T12:27:23.050Z,989.54
2019-02-02T12:28:23.043Z,989.54